createdAt,value
2018-04-11T00:01:05.011Z,10.87
2018-04-11T00:03:09.128Z,11.50
2018-04-11T00:05:13.220Z,10.83
2018-04-11T00:07:16.599Z,12.13
2018-04-11T00:09:20.736Z,10.57
2018-04-11T00:11:24.827Z,11.13
2018-04-11T00:13:28.991Z,10.77
2018-04-11T00:15:32.345Z,11.47
2018-04-11T00:17:37.494Z,10.40
2018-04-11T00:19:41.600Z,10.90
2018-04-11T00:21:45.787Z,10.77
2018-04-11T00:23:49.929Z,12.00
2018-04-11T00:25:53.261Z,10.83
2018-04-11T00:27:56.608Z,10.50
2018-04-11T00:30:00.692Z,10.60
2018-04-11T00:32:04.805Z,10.80
2018-04-11T00:34:08.945Z,10.33
2018-04-11T00:36:13.062Z,10.87
2018-04-11T00:38:16.422Z,10.23
2018-04-11T00:40:20.499Z,9.93
2018-04-11T00:42:24.614Z,9.63
2018-04-11T00:44:27.979Z,9.67
2018-04-11T00:46:31.356Z,9.30
2018-04-11T00:48:34.710Z,10.27
2018-04-11T00:50:38.820Z,10.00
2018-04-11T00:52:48.075Z,10.47
2018-04-11T00:54:51.799Z,10.40
2018-04-11T00:56:56.816Z,10.70
2018-04-11T00:59:00.876Z,11.20
2018-04-11T01:01:04.234Z,11.77
2018-04-11T01:03:08.469Z,11.60
2018-04-11T01:05:11.894Z,10.67
2018-04-11T01:07:15.621Z,11.30
2018-04-11T01:09:19.607Z,11.83
2018-04-11T01:11:22.927Z,11.40
2018-04-11T01:13:26.276Z,10.60
2018-04-11T01:15:30.037Z,10.23
2018-04-11T01:17:33.379Z,10.17
2018-04-11T01:19:36.740Z,9.73
2018-04-11T01:21:40.839Z,9.17
2018-04-11T01:23:44.193Z,8.33
2018-04-11T01:25:47.533Z,7.97
2018-04-11T01:27:51.724Z,7.77
2018-04-11T01:29:55.094Z,7.30
2018-04-11T01:31:58.390Z,6.47
2018-04-11T01:34:01.739Z,6.17
2018-04-11T01:36:05.940Z,7.53
2018-04-11T01:38:09.251Z,7.73
2018-04-11T01:40:12.597Z,7.70
2018-04-11T01:42:15.940Z,8.20
2018-04-11T01:44:19.299Z,8.63
2018-04-11T01:46:22.607Z,8.77
2018-04-11T01:48:27.422Z,8.43
2018-04-11T01:50:31.513Z,9.30
2018-04-11T01:52:35.017Z,8.37
2018-04-11T01:54:39.136Z,8.70
2018-04-11T01:56:43.227Z,9.90
2018-04-11T01:58:46.601Z,8.60
2018-04-11T02:00:49.930Z,8.73
2018-04-11T02:02:54.049Z,8.30
2018-04-11T02:04:57.400Z,8.33
2018-04-11T02:07:00.730Z,9.63
2018-04-11T02:09:04.848Z,8.20
2018-04-11T02:11:08.281Z,8.70
2018-04-11T02:13:11.602Z,8.57
2018-04-11T02:15:14.979Z,8.50
2018-04-11T02:17:18.311Z,9.10
2018-04-11T02:19:21.652Z,8.63
2018-04-11T02:21:24.968Z,8.50
2018-04-11T02:23:28.334Z,8.80
2018-04-11T02:25:31.665Z,9.60
2018-04-11T02:27:35.784Z,9.67
2018-04-11T02:29:39.147Z,8.97
2018-04-11T02:31:42.482Z,12.70
2018-04-11T02:33:46.075Z,10.87
2018-04-11T02:35:49.422Z,11.97
2018-04-11T02:37:52.754Z,12.97
2018-04-11T02:39:56.113Z,11.73
2018-04-11T02:41:59.435Z,12.67
2018-04-11T02:44:02.798Z,12.27
2018-04-11T02:46:06.996Z,11.90
2018-04-11T02:48:10.345Z,12.20
2018-04-11T02:50:13.870Z,12.60
2018-04-11T02:52:17.220Z,13.83
2018-04-11T02:54:20.588Z,13.30
2018-04-11T02:56:23.935Z,13.60
2018-04-11T02:58:27.300Z,15.53
2018-04-11T03:00:30.650Z,18.73
2018-04-11T03:02:34.011Z,17.43
2018-04-11T03:04:37.408Z,20.47
2018-04-11T03:06:40.768Z,18.60
2018-04-11T03:08:44.170Z,18.83
2018-04-11T03:10:47.565Z,18.97
2018-04-11T03:12:50.889Z,21.13
2018-04-11T03:14:55.052Z,19.07
2018-04-11T03:16:58.388Z,21.10
2018-04-11T03:19:01.754Z,18.40
2018-04-11T03:21:05.074Z,20.20
2018-04-11T03:23:09.197Z,18.57
2018-04-11T03:25:13.354Z,19.87
2018-04-11T03:27:16.705Z,19.73
2018-04-11T03:29:20.085Z,19.27
2018-04-11T03:31:24.185Z,18.83
2018-04-11T03:33:27.584Z,18.20
2018-04-11T03:35:30.942Z,18.57
2018-04-11T03:37:34.263Z,18.53
2018-04-11T03:39:37.655Z,19.10
2018-04-11T03:41:41.009Z,19.17
2018-04-11T03:43:44.362Z,17.20
2018-04-11T03:45:48.508Z,16.67
2018-04-11T03:47:51.875Z,16.50
2018-04-11T03:49:55.260Z,18.23
2018-04-11T03:51:59.383Z,18.07
2018-04-11T03:54:02.715Z,17.17
2018-04-11T03:56:06.032Z,16.23
2018-04-11T03:58:09.360Z,17.07
2018-04-11T04:00:12.687Z,16.07
2018-04-11T04:02:16.016Z,18.00
2018-04-11T04:04:19.401Z,16.53
2018-04-11T04:06:22.765Z,17.07
2018-04-11T04:08:26.187Z,16.63
2018-04-11T04:10:29.584Z,17.27
2018-04-11T04:12:32.955Z,17.00
2018-04-11T04:14:47.915Z,16.43
2018-04-11T04:17:03.009Z,16.43
2018-04-11T04:19:18.965Z,16.40
2018-04-11T04:21:22.310Z,16.43
2018-04-11T04:23:25.648Z,16.57
2018-04-11T04:25:29.040Z,18.40
2018-04-11T04:27:32.365Z,16.43
2018-04-11T04:29:36.472Z,16.67
2018-04-11T04:31:39.846Z,15.43
2018-04-11T04:33:43.155Z,16.60
2018-04-11T04:35:46.530Z,17.70
2018-04-11T04:37:49.862Z,18.00
2018-04-11T04:39:53.231Z,18.80
2018-04-11T04:41:56.555Z,19.77
2018-04-11T04:43:59.899Z,16.53
2018-04-11T04:46:03.280Z,17.17
2018-04-11T04:48:06.612Z,17.07
2018-04-11T04:50:10.050Z,16.13
2018-04-11T04:52:13.390Z,16.60
2018-04-11T04:54:16.735Z,15.20
2018-04-11T04:56:20.184Z,15.60
2018-04-11T04:58:23.710Z,15.50
2018-04-11T05:00:27.083Z,16.03
2018-04-11T05:02:30.435Z,14.97
2018-04-11T05:04:33.977Z,13.60
2018-04-11T05:06:37.324Z,14.13
2018-04-11T05:08:41.410Z,15.50
2018-04-11T05:10:44.756Z,15.73
2018-04-11T05:12:48.077Z,14.30
2018-04-11T05:14:51.418Z,16.37
2018-04-11T05:16:55.518Z,17.00
2018-04-11T05:18:59.632Z,14.80
2018-04-11T05:21:03.801Z,15.20
2018-04-11T05:23:07.133Z,14.80
2018-04-11T05:25:11.244Z,16.13
2018-04-11T05:27:15.418Z,15.50
2018-04-11T05:29:18.690Z,13.87
2018-04-11T05:31:22.036Z,14.00
2018-04-11T05:33:26.119Z,14.13
2018-04-11T05:35:29.464Z,13.73
2018-04-11T05:37:32.882Z,13.13
2018-04-11T05:39:36.502Z,14.50
2018-04-11T05:41:40.605Z,13.23
2018-04-11T05:43:43.979Z,13.70
2018-04-11T05:45:48.376Z,17.20
2018-04-11T05:47:51.844Z,13.33
2018-04-11T05:49:55.988Z,12.63
2018-04-11T05:51:59.449Z,11.63
2018-04-11T05:54:02.784Z,12.30
2018-04-11T05:56:06.145Z,12.77
2018-04-11T05:58:09.491Z,15.00
2018-04-11T06:00:13.465Z,12.70
2018-04-11T06:02:16.827Z,12.83
2018-04-11T06:04:21.046Z,10.87
2018-04-11T06:06:24.726Z,10.70
2018-04-11T06:08:31.808Z,10.63
2018-04-11T06:10:37.287Z,10.70
2018-04-11T06:12:41.545Z,12.47
2018-04-11T06:14:44.925Z,10.60
2018-04-11T06:16:49.101Z,10.80
2018-04-11T06:18:54.818Z,10.90
2018-04-11T06:21:01.629Z,11.20
2018-04-11T06:23:05.172Z,10.67
2018-04-11T06:25:09.464Z,9.77
2018-04-11T06:27:13.928Z,9.43
2018-04-11T06:29:17.298Z,10.90
2018-04-11T06:31:21.395Z,10.50
2018-04-11T06:33:25.916Z,11.70
2018-04-11T06:35:29.270Z,10.90
2018-04-11T06:37:33.715Z,12.00
2018-04-11T06:39:37.217Z,12.70
2018-04-11T06:41:41.310Z,12.30
2018-04-11T06:43:44.657Z,11.77
2018-04-11T06:45:48.042Z,11.73
2018-04-11T06:47:51.401Z,12.63
2018-04-11T06:49:55.286Z,12.97
2018-04-11T06:51:58.655Z,12.57
2018-04-11T06:54:01.968Z,11.97
2018-04-11T06:56:05.437Z,11.77
2018-04-11T06:58:08.780Z,12.50
2018-04-11T07:00:12.277Z,13.07
2018-04-11T07:02:16.383Z,12.07
2018-04-11T07:04:21.602Z,12.63
2018-04-11T07:06:26.419Z,11.17
2018-04-11T07:08:31.248Z,10.30
2018-04-11T07:10:35.975Z,12.17
2018-04-11T07:12:39.305Z,11.73
2018-04-11T07:14:43.497Z,11.63
2018-04-11T07:16:47.712Z,11.70
2018-04-11T07:18:51.870Z,12.13
2018-04-11T07:20:55.218Z,12.47
2018-04-11T07:22:58.552Z,11.93
2018-04-11T07:25:01.897Z,12.83
2018-04-11T07:27:05.233Z,13.03
2018-04-11T07:29:08.568Z,12.67
2018-04-11T07:31:12.675Z,14.00
2018-04-11T07:33:16.780Z,15.57
2018-04-11T07:35:20.157Z,15.17
2018-04-11T07:37:23.466Z,13.70
2018-04-11T07:39:27.572Z,13.77
2018-04-11T07:41:31.685Z,13.63
2018-04-11T07:43:35.792Z,11.97
2018-04-11T07:45:39.901Z,13.83
2018-04-11T07:47:44.095Z,12.37
2018-04-11T07:49:47.421Z,14.13
2018-04-11T07:51:50.794Z,12.70
2018-04-11T07:53:54.906Z,13.43
2018-04-11T07:55:59.598Z,11.67
2018-04-11T07:58:02.938Z,12.20
2018-04-11T08:00:06.347Z,12.00
2018-04-11T08:02:10.516Z,12.20
2018-04-11T08:04:13.836Z,11.43
2018-04-11T08:06:17.199Z,11.80
2018-04-11T08:08:21.872Z,13.40
2018-04-11T08:10:25.975Z,11.70
2018-04-11T08:12:29.354Z,12.70
2018-04-11T08:14:32.696Z,12.57
2018-04-11T08:16:37.062Z,12.00
2018-04-11T08:18:40.412Z,12.00
2018-04-11T08:20:43.780Z,11.40
2018-04-11T08:22:47.113Z,11.50
2018-04-11T08:24:51.822Z,11.40
2018-04-11T08:26:55.892Z,12.70
2018-04-11T08:29:00.049Z,12.53
2018-04-11T08:31:03.386Z,10.83
2018-04-11T08:33:07.909Z,10.63
2018-04-11T08:35:11.252Z,9.90
2018-04-11T08:37:16.288Z,11.83
2018-04-11T08:39:19.689Z,10.43
2018-04-11T08:41:23.967Z,10.20
2018-04-11T08:43:27.308Z,10.97
2018-04-11T08:45:30.682Z,10.20
2018-04-11T08:47:35.428Z,9.43
2018-04-11T08:49:38.818Z,8.40
2018-04-11T08:51:42.135Z,8.40
2018-04-11T08:53:45.462Z,8.83
2018-04-11T08:55:50.433Z,9.40
2018-04-11T08:57:56.564Z,9.03
2018-04-11T09:00:00.701Z,7.83
2018-04-11T09:02:04.072Z,7.30
2018-04-11T09:04:08.164Z,7.40
2018-04-11T09:06:12.322Z,7.63
2018-04-11T09:08:15.648Z,7.27
2018-04-11T09:10:20.433Z,7.57
2018-04-11T09:12:23.789Z,7.30
2018-04-11T09:14:27.887Z,6.97
2018-04-11T09:16:31.206Z,6.73
2018-04-11T09:18:36.042Z,6.80
2018-04-11T09:20:39.375Z,7.63
2018-04-11T09:22:42.707Z,7.40
2018-04-11T09:24:46.056Z,5.60
2018-04-11T09:26:49.462Z,5.40
2018-04-11T09:28:52.839Z,5.40
2018-04-11T09:30:56.197Z,4.40
2018-04-11T09:32:59.578Z,5.10
2018-04-11T09:35:02.878Z,3.70
2018-04-11T09:37:06.206Z,3.20
2018-04-11T09:39:10.315Z,3.07
2018-04-11T09:41:13.685Z,3.20
2018-04-11T09:43:17.008Z,3.20
2018-04-11T09:45:20.339Z,2.10
2018-04-11T09:49:34.045Z,1.73
2018-04-11T09:51:38.212Z,1.80
2018-04-11T09:53:41.511Z,1.70
2018-04-11T09:55:44.838Z,1.53
2018-04-11T09:57:48.164Z,2.07
2018-04-11T09:59:52.242Z,1.60
2018-04-11T10:01:55.593Z,1.70
2018-04-11T10:03:58.887Z,1.30
2018-04-11T10:06:02.213Z,1.67
2018-04-11T10:08:05.562Z,1.30
2018-04-11T10:10:08.881Z,1.40
2018-04-11T10:12:12.298Z,1.40
2018-04-11T10:14:15.594Z,1.40
2018-04-11T10:16:18.905Z,1.60
2018-04-11T10:18:22.217Z,1.57
2018-04-11T10:20:25.540Z,1.47
2018-04-11T10:22:28.901Z,1.90
2018-04-11T10:24:32.264Z,1.80
2018-04-11T10:26:35.637Z,2.10
2018-04-11T10:28:38.962Z,2.17
2018-04-11T10:30:42.269Z,2.00
2018-04-11T10:32:45.621Z,1.97
2018-04-11T10:34:49.700Z,1.83
2018-04-11T10:36:55.150Z,1.60
2018-04-11T10:38:58.458Z,2.10
2018-04-11T10:41:02.551Z,2.20
2018-04-11T10:43:05.897Z,1.73
2018-04-11T10:45:09.222Z,1.63
2018-04-11T10:47:13.145Z,1.73
2018-04-11T10:49:18.265Z,1.80
2018-04-11T10:51:21.565Z,1.70
2018-04-11T10:53:26.387Z,2.03
2018-04-11T10:55:30.572Z,2.20
2018-04-11T10:57:35.290Z,1.93
2018-04-11T10:59:39.431Z,1.60
2018-04-11T11:01:43.615Z,1.73
2018-04-11T11:03:47.806Z,1.90
2018-04-11T11:05:52.054Z,2.10
2018-04-11T11:07:55.388Z,2.03
2018-04-11T11:09:58.816Z,2.03
2018-04-11T11:12:03.783Z,1.80
2018-04-11T11:14:07.913Z,1.80
2018-04-11T11:16:12.195Z,2.53
2018-04-11T11:18:16.086Z,2.10
2018-04-11T11:20:21.005Z,1.83
2018-04-11T11:22:26.255Z,2.10
2018-04-11T11:24:30.673Z,2.13
2018-04-11T11:26:34.025Z,1.80
2018-04-11T11:28:37.342Z,1.40
2018-04-11T11:30:40.657Z,1.60
2018-04-11T11:32:43.988Z,1.90
2018-04-11T11:34:47.359Z,1.73
2018-04-11T11:36:51.441Z,1.60
2018-04-11T11:38:55.188Z,1.80
2018-04-11T11:40:58.536Z,1.80
2018-04-11T11:43:03.287Z,1.77
2018-04-11T11:45:07.956Z,1.77
2018-04-11T11:47:11.347Z,1.63
2018-04-11T11:49:14.717Z,1.70
2018-04-11T11:51:18.534Z,2.10
2018-04-11T11:53:21.845Z,2.00
2018-04-11T11:55:25.905Z,1.60
2018-04-11T11:57:29.278Z,1.90
2018-04-11T11:59:33.988Z,2.37
2018-04-11T12:01:37.822Z,1.80
2018-04-11T12:03:41.147Z,1.50
2018-04-11T12:05:46.075Z,1.63
2018-04-11T12:07:49.433Z,1.50
2018-04-11T12:09:53.559Z,1.83
2018-04-11T12:11:56.966Z,1.90
2018-04-11T12:14:00.304Z,2.30
2018-04-11T12:16:05.349Z,1.70
2018-04-11T12:18:10.440Z,1.60
2018-04-11T12:20:14.581Z,1.77
2018-04-11T12:22:19.850Z,1.60
2018-04-11T12:24:23.173Z,1.40
2018-04-11T12:26:26.557Z,1.67
2018-04-11T12:28:30.834Z,1.60
2018-04-11T12:30:34.987Z,1.50
2018-04-11T12:32:39.082Z,1.70
2018-04-11T12:34:42.879Z,1.43
2018-04-11T12:36:49.875Z,1.97
2018-04-11T12:38:53.247Z,1.70
2018-04-11T12:40:57.224Z,1.63
2018-04-11T12:43:01.375Z,1.63
2018-04-11T12:45:04.684Z,1.90
2018-04-11T12:47:08.017Z,1.60
2018-04-11T12:49:12.182Z,1.70
2018-04-11T12:51:15.485Z,1.77
2018-04-11T12:53:18.832Z,2.00
2018-04-11T12:55:22.157Z,2.17
2018-04-11T12:57:25.464Z,1.63
2018-04-11T12:59:28.816Z,2.10
2018-04-11T13:01:32.166Z,1.77
2018-04-11T13:03:36.299Z,1.80
2018-04-11T13:05:39.608Z,2.10
2018-04-11T13:07:42.922Z,2.00
2018-04-11T13:09:46.291Z,1.80
2018-04-11T13:11:49.652Z,2.30
2018-04-11T13:13:53.724Z,1.93
2018-04-11T13:15:57.925Z,1.90
2018-04-11T13:18:02.354Z,1.90
2018-04-11T13:20:06.840Z,1.80
2018-04-11T13:22:11.334Z,2.17
2018-04-11T13:24:15.100Z,2.20
2018-04-11T13:26:19.229Z,2.03
2018-04-11T13:28:23.314Z,1.87
2018-04-11T13:30:26.683Z,2.10
2018-04-11T13:32:30.319Z,2.20
2018-04-11T13:34:34.421Z,2.33
2018-04-11T13:36:37.783Z,2.07
2018-04-11T13:38:41.086Z,1.80
2018-04-11T13:40:44.447Z,1.87
2018-04-11T13:42:47.761Z,1.97
2018-04-11T13:44:51.150Z,1.80
2018-04-11T13:46:56.280Z,1.80
2018-04-11T13:49:00.413Z,2.03
2018-04-11T13:51:03.965Z,1.87
2018-04-11T13:53:07.275Z,1.83
2018-04-11T13:55:10.711Z,1.70
2018-04-11T13:57:14.962Z,2.03
2018-04-11T13:59:18.311Z,2.03
2018-04-11T14:01:22.669Z,2.03
2018-04-11T14:03:27.832Z,2.33
2018-04-11T14:05:31.182Z,2.13
2018-04-11T14:07:34.573Z,2.07
2018-04-11T14:09:37.908Z,2.20
2018-04-11T14:11:42.017Z,1.60
2018-04-11T14:13:45.411Z,2.40
2018-04-11T14:15:48.760Z,2.37
2018-04-11T14:17:53.855Z,2.10
2018-04-11T14:19:59.356Z,2.30
2018-04-11T14:22:02.679Z,2.17
2018-04-11T14:24:06.817Z,2.60
2018-04-11T14:26:10.198Z,2.20
2018-04-11T14:28:15.275Z,1.80
2018-04-11T14:30:18.601Z,2.27
2018-04-11T14:32:21.914Z,2.00
2018-04-11T14:34:26.022Z,1.90
2018-04-11T14:36:30.255Z,2.60
2018-04-11T14:38:33.682Z,2.00
2018-04-11T14:40:37.024Z,2.57
2018-04-11T14:42:42.992Z,1.80
2018-04-11T14:44:46.414Z,2.00
2018-04-11T14:46:49.738Z,1.90
2018-04-11T14:48:53.106Z,2.20
2018-04-11T14:50:56.431Z,1.93
2018-04-11T14:53:00.534Z,2.20
2018-04-11T14:55:03.960Z,2.23
2018-04-11T14:57:08.170Z,2.10
2018-04-11T14:59:11.543Z,1.90
2018-04-11T15:01:15.669Z,1.73
2018-04-11T15:03:19.022Z,2.07
2018-04-11T15:05:22.370Z,2.23
2018-04-11T15:07:25.700Z,2.43
2018-04-11T15:09:29.090Z,2.50
2018-04-11T15:11:33.196Z,2.50
2018-04-11T15:13:36.548Z,2.50
2018-04-11T15:15:39.939Z,2.40
2018-04-11T15:17:43.288Z,2.50
2018-04-11T15:19:46.657Z,2.00
2018-04-11T15:21:51.201Z,2.30
2018-04-11T15:23:54.710Z,2.03
2018-04-11T15:25:58.114Z,2.27
2018-04-11T15:28:01.435Z,2.20
2018-04-11T15:30:04.769Z,1.80
2018-04-11T15:32:08.209Z,2.37
2018-04-11T15:34:11.532Z,2.10
2018-04-11T15:36:14.893Z,2.33
2018-04-11T15:38:18.235Z,1.90
2018-04-11T15:40:21.555Z,1.90
2018-04-11T15:42:24.947Z,2.10
2018-04-11T15:44:29.033Z,2.00
2018-04-11T15:46:39.345Z,2.23
2018-04-11T15:48:42.687Z,2.50
2018-04-11T15:50:46.129Z,2.50
2018-04-11T15:52:49.463Z,2.50
2018-04-11T15:54:52.780Z,2.50
2018-04-11T15:56:56.120Z,2.17
2018-04-11T15:58:59.435Z,2.77
2018-04-11T16:01:02.772Z,2.77
2018-04-11T16:03:06.129Z,2.70
2018-04-11T16:05:10.232Z,2.60
2018-04-11T16:07:14.323Z,2.77
2018-04-11T16:09:17.647Z,2.33
2018-04-11T16:11:21.743Z,2.40
2018-04-11T16:13:25.864Z,3.33
2018-04-11T16:15:29.178Z,2.43
2018-04-11T16:17:32.527Z,2.80
2018-04-11T16:19:36.635Z,2.40
2018-04-11T16:21:39.945Z,2.27
2018-04-11T16:23:43.294Z,2.40
2018-04-11T16:25:46.586Z,2.77
2018-04-11T16:27:49.917Z,2.13
2018-04-11T16:29:53.335Z,2.70
2018-04-11T16:31:56.670Z,2.30
2018-04-11T16:34:00.841Z,2.30
2018-04-11T16:36:04.183Z,2.27
2018-04-11T16:38:08.344Z,2.27
2018-04-11T16:40:11.704Z,2.57
2018-04-11T16:42:15.027Z,2.00
2018-04-11T16:44:18.389Z,2.20
2018-04-11T16:46:22.460Z,2.40
2018-04-11T16:48:25.757Z,2.77
2018-04-11T16:50:29.539Z,1.87
2018-04-11T16:52:32.886Z,2.50
2018-04-11T16:54:36.282Z,2.57
2018-04-11T16:56:39.825Z,2.83
2018-04-11T16:58:43.139Z,2.57
2018-04-11T17:00:47.257Z,2.60
2018-04-11T17:02:51.341Z,2.40
2018-04-11T17:04:54.707Z,2.70
2018-04-11T17:06:58.846Z,2.20
2018-04-11T17:09:02.163Z,3.10
2018-04-11T17:11:05.551Z,2.07
2018-04-11T17:13:09.637Z,2.20
2018-04-11T17:15:13.028Z,2.40
2018-04-11T17:17:16.381Z,2.40
2018-04-11T17:19:19.799Z,2.67
2018-04-11T17:21:35.011Z,2.50
2018-04-11T17:23:50.781Z,2.43
2018-04-11T17:26:06.609Z,2.57
2018-04-11T17:28:22.390Z,2.70
2018-04-11T17:30:37.572Z,2.63
2018-04-11T17:32:40.896Z,3.00
2018-04-11T17:34:44.297Z,2.90
2018-04-11T17:36:48.795Z,3.70
2018-04-11T17:38:52.118Z,2.90
2018-04-11T17:40:55.531Z,2.93
2018-04-11T17:43:00.767Z,2.83
2018-04-11T17:45:04.364Z,3.40
2018-04-11T17:47:07.734Z,3.40
2018-04-11T17:49:11.983Z,5.10
2018-04-11T17:51:15.311Z,4.77
2018-04-11T17:53:18.682Z,4.50
2018-04-11T17:55:22.125Z,3.80
2018-04-11T17:57:26.250Z,4.10
2018-04-11T17:59:30.573Z,3.90
2018-04-11T18:01:33.942Z,4.40
2018-04-11T18:03:37.285Z,4.60
2018-04-11T18:05:40.621Z,5.27
2018-04-11T18:07:44.714Z,5.40
2018-04-11T18:09:48.078Z,4.73
2018-04-11T18:11:51.407Z,3.87
2018-04-11T18:13:55.491Z,4.07
2018-04-11T18:15:58.846Z,4.37
2018-04-11T18:18:02.220Z,5.10
2018-04-11T18:20:05.691Z,4.90
2018-04-11T18:22:09.868Z,4.20
2018-04-11T18:24:13.276Z,4.50
2018-04-11T18:26:16.649Z,4.30
2018-04-11T18:28:21.842Z,4.10
2018-04-11T18:30:25.485Z,4.43
2018-04-11T18:32:28.833Z,4.67
2018-04-11T18:34:32.183Z,4.13
2018-04-11T18:36:36.543Z,4.50
2018-04-11T18:38:40.188Z,4.67
2018-04-11T18:40:43.539Z,4.60
2018-04-11T18:42:47.070Z,4.17
2018-04-11T18:44:51.881Z,4.60
2018-04-11T18:46:55.881Z,3.87
2018-04-11T18:49:01.441Z,4.60
2018-04-11T18:51:05.575Z,5.23
2018-04-11T18:53:11.811Z,5.27
2018-04-11T18:55:18.867Z,4.23
2018-04-11T18:57:22.547Z,4.83
2018-04-11T18:59:26.724Z,4.13
2018-04-11T19:01:30.169Z,4.50
2018-04-11T19:03:33.520Z,4.20
2018-04-11T19:05:37.624Z,4.00
2018-04-11T19:07:41.396Z,4.03
2018-04-11T19:09:44.745Z,3.77
2018-04-11T19:11:48.071Z,4.23
2018-04-11T19:13:51.399Z,3.60
2018-04-11T19:15:55.301Z,4.30
2018-04-11T19:17:58.676Z,3.70
2018-04-11T19:20:02.633Z,3.97
2018-04-11T19:22:06.123Z,4.00
2018-04-11T19:24:09.446Z,4.03
2018-04-11T19:26:12.781Z,4.07
2018-04-11T19:28:16.871Z,3.90
2018-04-11T19:30:20.228Z,3.70
2018-04-11T19:32:23.711Z,3.63
2018-04-11T19:34:27.085Z,4.50
2018-04-11T19:36:31.108Z,4.00
2018-04-11T19:38:35.140Z,3.77
2018-04-11T19:40:39.337Z,3.87
2018-04-11T19:42:43.851Z,4.00
2018-04-11T19:44:49.577Z,3.70
2018-04-11T19:46:54.585Z,3.80
2018-04-11T19:49:01.094Z,4.10
2018-04-11T19:51:05.525Z,7.00
2018-04-11T19:53:09.290Z,6.50
2018-04-11T19:55:12.965Z,6.80
2018-04-11T19:57:17.279Z,6.70
2018-04-11T19:59:23.647Z,6.23
2018-04-11T20:01:28.850Z,6.27
2018-04-11T20:03:35.474Z,5.10
2018-04-11T20:05:41.029Z,5.40
2018-04-11T20:07:46.431Z,5.20
2018-04-11T20:09:50.392Z,6.20
2018-04-11T20:11:55.241Z,5.00
2018-04-11T20:13:59.394Z,5.17
2018-04-11T20:16:03.481Z,5.30
2018-04-11T20:18:06.869Z,5.30
2018-04-11T20:20:10.425Z,5.37
2018-04-11T20:22:13.806Z,6.00
2018-04-11T20:24:17.124Z,5.97
2018-04-11T20:26:20.447Z,5.33
2018-04-11T20:28:24.596Z,5.00
2018-04-11T20:30:29.771Z,4.47
2018-04-11T20:32:33.096Z,5.00
2018-04-11T20:34:36.448Z,4.30
2018-04-11T20:36:40.666Z,4.00
2018-04-11T20:38:43.994Z,3.93
2018-04-11T20:40:47.334Z,3.63
2018-04-11T20:42:51.075Z,3.50
2018-04-11T20:44:55.140Z,3.40
2018-04-11T20:46:58.458Z,2.97
2018-04-11T20:49:01.849Z,3.10
2018-04-11T20:51:05.255Z,3.73
2018-04-11T20:53:09.345Z,3.17
2018-04-11T20:55:12.677Z,3.10
2018-04-11T20:57:16.831Z,2.97
2018-04-11T20:59:20.194Z,3.23
2018-04-11T21:01:23.534Z,3.53
2018-04-11T21:03:27.098Z,3.53
2018-04-11T21:05:31.843Z,3.17
2018-04-11T21:07:35.162Z,3.07
2018-04-11T21:09:40.744Z,3.37
2018-04-11T21:11:44.073Z,3.50
2018-04-11T21:13:48.501Z,3.63
2018-04-11T21:15:51.895Z,3.97
2018-04-11T21:17:55.253Z,4.43
2018-04-11T21:19:58.632Z,3.67
2018-04-11T21:22:02.042Z,4.10
2018-04-11T21:24:05.461Z,3.87
2018-04-11T21:26:08.855Z,3.83
2018-04-11T21:28:12.209Z,4.10
2018-04-11T21:30:16.376Z,4.03
2018-04-11T21:32:20.477Z,4.60
2018-04-11T21:34:24.574Z,3.63
2018-04-11T21:36:28.678Z,4.60
2018-04-11T21:38:32.010Z,3.60
2018-04-11T21:40:35.407Z,4.10
2018-04-11T21:42:38.754Z,3.77
2018-04-11T21:44:42.835Z,4.27
2018-04-11T21:46:46.157Z,3.80
2018-04-11T21:48:50.268Z,3.90
2018-04-11T21:50:54.382Z,3.80
2018-04-11T21:52:59.280Z,4.57
2018-04-11T21:55:02.651Z,4.23
2018-04-11T21:57:05.989Z,4.30
2018-04-11T21:59:09.353Z,4.70
2018-04-11T22:01:12.939Z,4.47
2018-04-11T22:03:17.453Z,6.03
2018-04-11T22:05:20.863Z,4.63
2018-04-11T22:07:24.234Z,5.07
2018-04-11T22:09:27.612Z,4.93
2018-04-11T22:11:31.054Z,4.80
2018-04-11T22:13:34.558Z,5.27
2018-04-11T22:15:38.684Z,4.97
2018-04-11T22:17:43.236Z,5.27
2018-04-11T22:19:46.592Z,5.50
2018-04-11T22:21:50.506Z,5.73
2018-04-11T22:23:54.944Z,6.80
2018-04-11T22:25:58.925Z,6.40
2018-04-11T22:28:02.518Z,6.20
2018-04-11T22:30:06.165Z,6.57
2018-04-11T22:32:11.101Z,6.07
2018-04-11T22:34:14.517Z,6.00
2018-04-11T22:36:17.912Z,6.43
2018-04-11T22:38:21.918Z,6.10
2018-04-11T22:40:25.282Z,5.87
2018-04-11T22:42:28.603Z,5.83
2018-04-11T22:44:33.282Z,6.20
2018-04-11T22:46:36.606Z,5.67
2018-04-11T22:48:40.736Z,6.60
2018-04-11T22:50:44.932Z,6.17
2018-04-11T22:52:48.346Z,6.80
2018-04-11T22:54:52.451Z,6.50
2018-04-11T22:56:56.557Z,5.20
2018-04-11T22:59:01.005Z,5.43
2018-04-11T23:01:05.075Z,4.90
2018-04-11T23:03:08.451Z,5.10
2018-04-11T23:05:12.674Z,5.33
2018-04-11T23:07:16.766Z,4.80
2018-04-11T23:09:22.205Z,4.83
2018-04-11T23:11:25.606Z,4.93
2018-04-11T23:13:30.456Z,5.17
2018-04-11T23:15:34.958Z,4.77
2018-04-11T23:17:39.918Z,4.30
2018-04-11T23:19:46.097Z,4.10
2018-04-11T23:21:49.695Z,5.10
2018-04-11T23:23:53.114Z,5.40
2018-04-11T23:25:56.513Z,4.80
2018-04-11T23:27:59.852Z,5.23
2018-04-11T23:30:03.240Z,5.10
2018-04-11T23:32:06.637Z,4.47
2018-04-11T23:34:10.759Z,4.80
2018-04-11T23:36:14.159Z,4.97
2018-04-11T23:38:17.531Z,5.07
2018-04-11T23:40:20.873Z,5.60
2018-04-11T23:42:25.065Z,5.57
2018-04-11T23:44:28.407Z,5.20
2018-04-11T23:46:31.748Z,4.50
2018-04-11T23:48:35.076Z,4.53
2018-04-11T23:50:38.388Z,4.53
2018-04-11T23:52:42.520Z,4.90
2018-04-11T23:54:45.894Z,5.90
2018-04-11T23:56:49.258Z,5.37
2018-04-11T23:58:52.583Z,5.67
